Time;durP1;ratioP1;P1;durP2;ratioP2;P2;SDS_P1;SDS_P2;PMS_P1;PMS_P2;Temp;Humidity;BMP_temperature;BMP_pressure;BME280_temperature;BME280_humidity;BME280_pressure;Samples;Min_cycle;Max_cycle;Signal;HPM_P1;HPM_P2
2021/12/31 11:15:34;;;;;;;;;10.50;9.50;;;;;14.47;66.39;102703.44;5123043;27;45434;-93
2021/12/31 11:17:59;;;;;;;;;12.00;11.00;;;;;14.68;66.15;102701.44;5090333;27;46596;-91
2021/12/31 11:20:24;;;;;;;;;9.75;7.00;;;;;14.89;65.31;102706.59;5088757;27;45691;-92
2021/12/31 11:22:51;;;;;;;;;10.00;10.00;;;;;15.03;64.95;102692.47;5056171;27;45388;-93
2021/12/31 11:25:16;;;;;;;;;11.50;10.75;;;;;15.47;64.31;102732.00;5058572;27;47989;-94
2021/12/31 11:27:45;;;;;;;;;10.25;10.25;;;;;15.59;64.11;102727.75;5093789;27;45315;-93
2021/12/31 11:30:33;;;;;;;;;10.50;10.25;;;;;15.82;63.86;102737.16;5050115;27;45327;-94
2021/12/31 11:33:00;;;;;;;;;10.00;9.75;;;;;15.91;63.49;102729.53;5075769;27;45531;-93
2021/12/31 11:35:35;;;;;;;;;8.75;8.75;;;;;16.08;63.04;102731.25;5063248;27;47176;-95
2021/12/31 11:38:06;;;;;;;;;11.00;10.00;;;;;16.21;62.92;102730.50;5091631;27;46015;-93
2021/12/31 11:40:36;;;;;;;;;11.00;9.80;;;;;16.26;62.88;102712.38;5077825;27;45500;-94
2021/12/31 11:43:23;;;;;;;;;11.25;9.25;;;;;16.49;62.56;102732.38;5047666;27;45483;-91
2021/12/31 11:46:10;;;;;;;;;8.25;8.25;;;;;16.63;62.27;102728.00;5070907;27;47307;-90
2021/12/31 11:48:51;;;;;;;;;9.40;8.00;;;;;16.74;61.99;102726.47;5105136;27;45457;-91
2021/12/31 11:51:18;;;;;;;;;10.00;9.20;;;;;16.63;61.61;102692.31;5089382;27;45435;-91
2021/12/31 11:53:55;;;;;;;;;12.00;9.75;;;;;16.95;61.51;102728.78;5082831;27;45830;-91
2021/12/31 11:56:36;;;;;;;;;10.25;10.00;;;;;17.03;61.48;102726.47;5108915;27;45423;-93
2021/12/31 11:59:07;;;;;;;;;14.20;12.80;;;;;17.12;61.06;102725.88;5081702;27;45588;-91
2021/12/31 12:01:36;;;;;;;;;12.00;9.60;;;;;17.13;61.08;102714.19;5091790;27;45569;-91
2021/12/31 12:04:21;;;;;;;;;11.25;9.25;;;;;17.29;60.38;102715.91;5089477;27;45552;-92
2021/12/31 12:07:04;;;;;;;;;12.40;9.80;;;;;17.30;60.69;102709.56;5085623;27;46435;-92
2021/12/31 12:09:36;;;;;;;;;10.40;8.00;;;;;17.44;60.55;102716.72;5090493;27;45477;-90
2021/12/31 12:12:10;;;;;;;;;9.20;9.00;;;;;17.51;60.42;102721.69;5091363;27;45391;-92
2021/12/31 12:14:46;;;;;;;;;10.75;9.50;;;;;17.53;60.19;102707.22;5086246;27;45523;-92
2021/12/31 12:17:13;;;;;;;;;8.80;8.80;;;;;17.43;60.00;102671.22;5069119;27;47020;-92
2021/12/31 12:19:49;;;;;;;;;7.80;7.20;;;;;17.69;60.20;102700.84;5071996;27;46146;-90
2021/12/31 12:22:34;;;;;;;;;9.40;9.00;;;;;17.60;59.76;102675.47;5085747;27;45771;-91
2021/12/31 12:25:15;;;;;;;;;8.80;7.40;;;;;17.69;59.82;102679.38;5070099;27;45434;-92
2021/12/31 12:27:41;;;;;;;;;8.80;8.80;;;;;17.63;59.18;102663.66;5077356;27;46497;-91
2021/12/31 12:30:11;;;;;;;;;7.00;6.75;;;;;17.79;59.33;102685.81;5045423;27;46258;-91
2021/12/31 12:32:40;;;;;;;;;10.80;8.80;;;;;17.69;59.12;102652.53;5060110;27;45345;-91
2021/12/31 12:35:22;;;;;;;;;11.40;7.60;;;;;17.89;59.19;102674.47;5058331;27;45616;-90
2021/12/31 12:37:58;;;;;;;;;9.80;9.60;;;;;17.83;58.76;102653.41;5061380;27;47484;-91
2021/12/31 12:40:36;;;;;;;;;11.60;9.80;;;;;18.08;58.92;102695.56;5058172;27;45686;-91
2021/12/31 12:43:06;;;;;;;;;8.60;8.20;;;;;17.94;58.78;102664.28;5069175;28;45823;-96
2021/12/31 12:45:34;;;;;;;;;6.40;6.00;;;;;17.73;58.62;102629.84;5035766;27;45382;-93
2021/12/31 12:48:00;;;;;;;;;8.00;8.00;;;;;18.08;58.55;102679.44;5044406;27;47423;-92
2021/12/31 12:50:25;;;;;;;;;10.25;9.50;;;;;17.86;58.77;102637.94;5056945;27;48222;-91
2021/12/31 12:52:57;;;;;;;;;8.25;8.25;;;;;18.04;58.52;102658.28;5072507;27;45388;-91
2021/12/31 12:55:22;;;;;;;;;8.80;7.60;;;;;18.17;58.07;102677.06;5039286;27;45634;-91
2021/12/31 12:57:53;;;;;;;;;9.25;9.25;;;;;17.95;58.36;102635.59;5072746;27;45653;-91
2021/12/31 13:00:18;;;;;;;;;8.00;6.20;;;;;18.13;57.77;102654.94;5066273;27;45463;-92
2021/12/31 13:02:45;;;;;;;;;7.25;7.25;;;;;18.06;58.10;102637.53;5062214;27;45480;-92
2021/12/31 13:05:12;;;;;;;;;6.40;6.40;;;;;18.01;57.82;102625.28;5042601;27;45713;-92
2021/12/31 13:07:48;;;;;;;;;8.40;8.40;;;;;18.10;57.96;102622.94;5053934;28;47204;-91
2021/12/31 13:10:14;;;;;;;;;8.80;7.40;;;;;18.32;57.78;102661.75;5083661;27;45579;-94
2021/12/31 13:12:39;;;;;;;;;7.00;7.00;;;;;18.11;57.74;102619.28;5040815;27;45502;-92
2021/12/31 13:15:05;;;;;;;;;7.75;6.50;;;;;18.28;57.77;102655.72;5038081;28;45503;-94
2021/12/31 13:17:32;;;;;;;;;8.00;7.75;;;;;18.26;57.91;102641.56;5061632;27;47341;-95
2021/12/31 13:20:09;;;;;;;;;10.80;10.20;;;;;18.55;57.53;102680.78;5044084;27;45309;-94
2021/12/31 13:22:35;;;;;;;;;9.00;9.00;;;;;18.57;57.61;102686.88;5062261;27;45347;-94
2021/12/31 13:25:01;;;;;;;;;8.60;8.60;;;;;18.36;57.71;102644.44;5033082;28;45492;-96
2021/12/31 13:27:29;;;;;;;;;8.00;7.25;;;;;18.50;58.00;102662.25;5061209;27;46923;-94
2021/12/31 13:30:08;;;;;;;;;8.20;7.80;;;;;18.55;57.72;102662.81;5045012;27;45587;-95
2021/12/31 13:32:44;;;;;;;;;8.40;8.00;;;;;18.55;57.89;102652.06;5059482;27;45782;-92
2021/12/31 13:35:14;;;;;;;;;9.20;7.60;;;;;18.50;57.41;102648.00;5042072;28;45404;-90
2021/12/31 13:37:42;;;;;;;;;5.00;5.00;;;;;18.60;57.61;102657.09;5059334;27;48103;-91
2021/12/31 13:40:08;;;;;;;;;7.40;6.00;;;;;18.74;57.47;102674.06;5069195;27;45547;-91
2021/12/31 13:42:34;;;;;;;;;4.20;4.20;;;;;18.63;57.78;102646.13;5053160;28;45608;-90
2021/12/31 13:44:59;;;;;;;;;6.00;6.00;;;;;18.66;57.85;102648.59;5072885;27;45557;-90
2021/12/31 13:47:25;;;;;;;;;7.50;7.00;;;;;18.71;57.33;102650.09;5064120;27;48100;-91
2021/12/31 13:49:52;;;;;;;;;4.25;3.75;;;;;18.81;57.38;102661.91;5057632;28;45760;-91
2021/12/31 13:52:29;;;;;;;;;6.20;6.00;;;;;18.78;57.73;102660.31;5049022;28;45469;-89
2021/12/31 13:54:56;;;;;;;;;9.20;6.20;;;;;18.74;57.43;102657.94;5092241;27;45534;-92
2021/12/31 13:57:26;;;;;;;;;5.40;3.40;;;;;18.78;57.19;102660.31;5042596;27;48190;-94
2021/12/31 13:59:53;;;;;;;;;6.40;5.60;;;;;18.57;57.06;102631.31;5051611;28;45453;-91
2021/12/31 14:02:22;;;;;;;;;5.40;4.60;;;;;18.81;56.94;102663.75;5038260;27;45576;-91
2021/12/31 14:04:53;;;;;;;;;6.40;6.40;;;;;18.79;57.41;102670.09;5078256;27;45480;-93
2021/12/31 14:07:59;;;;;;;;;5.80;5.80;;;;;18.59;57.39;102639.25;5071779;27;47358;-92
2021/12/31 14:10:25;;;;;;;;;13.60;10.20;;;;;18.66;57.24;102650.44;5070547;27;45388;-92
2021/12/31 14:12:54;;;;;;;;;9.40;9.40;;;;;18.76;57.57;102667.59;5044597;28;45772;-93
2021/12/31 14:15:24;;;;;;;;;11.80;10.20;;;;;18.75;57.26;102665.91;5063340;28;45508;-93
2021/12/31 14:17:50;;;;;;;;;10.60;8.60;;;;;18.59;57.25;102633.88;5073371;27;47505;-93
2021/12/31 14:20:17;;;;;;;;;10.75;10.75;;;;;18.57;57.24;102625.06;5062689;27;45467;-93
2021/12/31 14:22:43;;;;;;;;;10.00;9.00;;;;;18.65;57.31;102640.63;5045240;27;45443;-93
2021/12/31 14:25:08;;;;;;;;;12.25;8.75;;;;;18.70;57.26;102640.31;5042404;28;45528;-92
2021/12/31 14:27:34;;;;;;;;;10.25;9.25;;;;;18.73;57.51;102650.88;5032810;27;49439;-90
2021/12/31 14:29:59;;;;;;;;;9.75;8.50;;;;;18.75;57.24;102648.91;5092169;27;45561;-90
2021/12/31 14:32:25;;;;;;;;;11.00;9.25;;;;;18.79;57.29;102655.78;5036910;27;45361;-89
2021/12/31 14:34:52;;;;;;;;;8.50;8.50;;;;;18.86;57.26;102658.88;5043010;27;47798;-89
2021/12/31 14:37:17;;;;;;;;;10.20;7.20;;;;;18.77;56.92;102641.59;5052898;28;45481;-89
2021/12/31 14:39:55;;;;;;;;;10.25;8.75;;;;;18.87;57.28;102664.16;5050050;27;45579;-89
2021/12/31 14:42:22;;;;;;;;;10.80;9.00;;;;;18.80;57.27;102652.13;5061501;27;45508;-90
2021/12/31 14:44:47;;;;;;;;;9.00;8.20;;;;;18.83;57.23;102649.22;5055816;27;45517;-89
2021/12/31 14:47:13;;;;;;;;;8.00;7.75;;;;;18.88;57.07;102655.13;5056644;27;45475;-90
2021/12/31 14:49:39;;;;;;;;;11.00;7.75;;;;;18.82;57.04;102638.59;5039200;27;45473;-89
2021/12/31 14:52:05;;;;;;;;;9.20;7.60;;;;;18.83;56.88;102645.66;5044869;27;45433;-90
2021/12/31 14:54:32;;;;;;;;;7.80;7.60;;;;;18.86;56.96;102646.31;5046897;27;47306;-91
2021/12/31 14:56:58;;;;;;;;;9.80;8.80;;;;;18.84;56.77;102639.31;5058708;28;47400;-89
2021/12/31 14:59:24;;;;;;;;;11.25;9.25;;;;;18.80;57.04;102630.63;5088908;27;45527;-94
2021/12/31 15:01:49;;;;;;;;;8.40;8.00;;;;;18.77;57.02;102631.69;5061517;27;45445;-90
2021/12/31 15:04:14;;;;;;;;;9.00;9.00;;;;;18.87;56.96;102642.66;5033947;27;45691;-91
2021/12/31 15:06:40;;;;;;;;;9.75;8.25;;;;;18.65;56.80;102605.69;5053979;27;47163;-89
2021/12/31 15:09:05;;;;;;;;;11.25;9.25;;;;;18.81;56.84;102632.34;5039450;27;45811;-90
2021/12/31 15:11:31;;;;;;;;;7.00;6.50;;;;;18.82;56.85;102642.09;5040464;27;48010;-92
2021/12/31 15:13:56;;;;;;;;;7.75;7.25;;;;;18.80;57.04;102630.63;5084008;27;45406;-92
2021/12/31 15:16:22;;;;;;;;;8.75;7.25;;;;;18.90;57.05;102642.41;5054849;28;47183;-90
2021/12/31 15:18:49;;;;;;;;;8.75;7.25;;;;;18.96;56.83;102645.63;5064074;27;46044;-92
2021/12/31 15:21:15;;;;;;;;;9.40;8.60;;;;;18.89;56.99;102635.31;5071783;28;45493;-90
2021/12/31 15:23:40;;;;;;;;;12.00;9.00;;;;;18.87;57.03;102634.59;5086412;27;45461;-88
2021/12/31 15:26:06;;;;;;;;;7.75;7.00;;;;;18.82;57.17;102634.03;5087157;27;45680;-88
2021/12/31 15:28:31;;;;;;;;;8.25;8.25;;;;;18.83;56.90;102632.22;5080109;27;45707;-94
2021/12/31 15:30:57;;;;;;;;;7.50;7.00;;;;;18.96;56.96;102648.34;5054756;27;45620;-92
2021/12/31 15:33:22;;;;;;;;;7.75;7.00;;;;;18.92;56.84;102644.13;5042850;27;45523;-94
2021/12/31 15:35:47;;;;;;;;;7.00;7.00;;;;;18.90;56.94;102642.41;5057638;27;48039;-94
2021/12/31 15:38:13;;;;;;;;;9.25;8.50;;;;;18.92;56.73;102646.81;5040372;28;45362;-88
2021/12/31 15:40:39;;;;;;;;;9.00;7.00;;;;;18.93;56.84;102651.25;5085873;27;45436;-89
2021/12/31 15:43:04;;;;;;;;;11.25;7.25;;;;;18.71;56.92;102621.38;5056353;27;45404;-89
2021/12/31 15:45:29;;;;;;;;;9.00;7.00;;;;;18.93;56.85;102657.50;5030047;27;47012;-88
2021/12/31 15:47:55;;;;;;;;;12.00;11.25;;;;;18.89;56.88;102654.16;5078461;27;46503;-95
2021/12/31 15:50:20;;;;;;;;;10.25;6.25;;;;;18.80;56.67;102630.63;5068495;27;45481;-88
2021/12/31 15:52:46;;;;;;;;;9.75;8.50;;;;;18.98;56.87;102670.59;5081850;27;45333;-91
2021/12/31 15:55:13;;;;;;;;;7.50;7.50;;;;;18.93;57.02;102668.25;5061301;27;45507;-91
2021/12/31 15:57:39;;;;;;;;;7.20;7.00;;;;;18.80;56.86;102641.38;5046696;27;45529;-89
2021/12/31 16:00:05;;;;;;;;;7.25;7.00;;;;;18.98;56.67;102659.81;5054023;27;46051;-89
2021/12/31 16:02:30;;;;;;;;;6.40;6.20;;;;;18.93;56.64;102656.63;5044018;27;45483;-89
2021/12/31 16:04:56;;;;;;;;;9.50;9.00;;;;;18.85;56.70;102633.81;5045155;27;47992;-90
2021/12/31 16:07:21;;;;;;;;;8.00;7.00;;;;;18.78;56.98;102621.81;5075726;27;45383;-92
2021/12/31 16:09:47;;;;;;;;;9.00;7.50;;;;;18.68;56.93;102602.78;5074759;28;45478;-91
2021/12/31 16:12:13;;;;;;;;;11.75;9.25;;;;;18.75;56.59;102619.34;5064751;27;45343;-89
2021/12/31 16:14:38;;;;;;;;;10.50;9.25;;;;;18.89;56.84;102640.72;5049575;28;46874;-89
2021/12/31 16:17:04;;;;;;;;;12.75;10.75;;;;;18.92;57.00;102645.00;5037239;28;45456;-91
2021/12/31 16:19:29;;;;;;;;;11.75;9.25;;;;;18.83;56.80;102624.16;5047658;28;45564;-90
2021/12/31 16:21:55;;;;;;;;;8.00;8.00;;;;;18.83;56.52;102626.84;5032994;28;45547;-88
2021/12/31 16:24:22;;;;;;;;;12.25;8.25;;;;;18.98;56.83;102643.69;5048968;28;45752;-90
2021/12/31 16:26:47;;;;;;;;;11.80;11.80;;;;;18.98;56.98;102643.69;5071450;27;45812;-90
2021/12/31 16:29:13;;;;;;;;;9.00;9.00;;;;;18.75;56.75;102600.53;5031353;28;45538;-90
2021/12/31 16:31:38;;;;;;;;;9.25;9.25;;;;;18.94;56.72;102632.28;5037114;28;45544;-91
2021/12/31 16:34:06;;;;;;;;;12.25;11.50;;;;;19.04;56.79;102653.13;5015742;28;50106;-89
2021/12/31 16:36:32;;;;;;;;;10.80;9.80;;;;;18.97;56.65;102632.06;5027454;28;45886;-88
2021/12/31 16:38:57;;;;;;;;;12.50;10.75;;;;;18.90;56.62;102620.06;5026522;28;45550;-89
2021/12/31 16:41:22;;;;;;;;;9.00;7.75;;;;;19.00;56.44;102641.75;5022588;28;45472;-90
2021/12/31 16:43:48;;;;;;;;;12.25;11.25;;;;;19.07;56.62;102648.41;5047349;28;49005;-90
2021/12/31 16:46:13;;;;;;;;;12.00;8.50;;;;;18.97;56.85;102626.69;5031527;28;49450;-90
2021/12/31 16:48:38;;;;;;;;;13.50;11.50;;;;;19.11;56.78;102651.69;5032717;28;45400;-90
2021/12/31 16:51:04;;;;;;;;;11.75;10.50;;;;;19.02;56.62;102637.09;5038361;28;45565;-92
